createdAt,value
2023-05-20T00:02:22.816Z,98714.94
2023-05-20T00:04:50.147Z,98722.69
2023-05-20T00:07:17.362Z,98712.44
2023-05-20T00:09:45.425Z,98706.69
2023-05-20T00:12:12.506Z,98706.69
2023-05-20T00:14:39.738Z,98709.97
2023-05-20T00:17:08.056Z,98710.72
2023-05-20T00:19:35.156Z,98713.56
2023-05-20T00:22:02.448Z,98714.06
2023-05-20T00:24:29.572Z,98721.16
2023-05-20T00:26:56.650Z,98714.38
2023-05-20T00:29:24.130Z,98707.69
2023-05-20T00:31:51.254Z,98710.22
2023-05-20T00:34:18.467Z,98702.28
2023-05-20T00:36:45.846Z,98704.59
2023-05-20T00:39:12.987Z,98708.69
2023-05-20T00:41:40.787Z,98707.19
2023-05-20T00:44:07.955Z,98698.47
2023-05-20T00:46:35.781Z,98697.94
2023-05-20T00:49:02.984Z,98699.19
2023-05-20T00:51:30.951Z,98705.72
2023-05-20T00:53:58.680Z,98708.25
2023-05-20T00:56:26.589Z,98708.25
2023-05-20T00:58:54.402Z,98710.03
2023-05-20T01:01:21.762Z,98704.63
2023-05-20T01:03:49.197Z,98705.16
2023-05-20T01:06:16.451Z,98706.69
2023-05-20T01:08:43.617Z,98703.41
2023-05-20T01:11:28.731Z,98698.91
2023-05-20T01:13:58.479Z,98700.38
2023-05-20T01:16:26.057Z,98696.69
2023-05-20T01:18:55.946Z,98696.69
2023-05-20T01:21:23.368Z,98694.69
2023-05-20T01:23:50.464Z,98690.66
2023-05-20T01:26:18.891Z,98692.22
2023-05-20T01:28:46.099Z,98697.78
2023-05-20T01:31:24.099Z,98704.84
2023-05-20T01:33:55.613Z,98695.88
2023-05-20T01:36:22.910Z,98701.19
2023-05-20T01:38:50.993Z,98690.75
2023-05-20T01:41:18.444Z,98690.28
2023-05-20T01:43:45.799Z,98694.06
2023-05-20T01:46:12.903Z,98686.88
2023-05-20T01:48:40.169Z,98692.34
2023-05-20T01:51:07.725Z,98686.44
2023-05-20T01:53:35.695Z,98686.72
2023-05-20T01:56:03.191Z,98682.97
2023-05-20T01:58:30.439Z,98675.56
2023-05-20T02:00:57.617Z,98672.09
2023-05-20T02:03:24.834Z,98673.09
2023-05-20T02:05:52.375Z,98678.91
2023-05-20T02:08:20.198Z,98675.69
2023-05-20T02:10:49.264Z,98672.94
2023-05-20T02:13:17.089Z,98670.19
2023-05-20T02:15:44.965Z,98662.72
2023-05-20T02:18:12.865Z,98664.50
2023-05-20T02:20:41.108Z,98668.28
2023-05-20T02:23:08.788Z,98660.31
2023-05-20T02:25:36.533Z,98658.31
2023-05-20T02:28:06.066Z,98654.31
2023-05-20T02:30:33.440Z,98667.06
2023-05-20T02:33:00.742Z,98663.38
2023-05-20T02:35:27.899Z,98662.09
2023-05-20T02:37:55.035Z,98664.13
2023-05-20T02:40:22.956Z,98669.88
2023-05-20T02:42:50.109Z,98666.69
2023-05-20T02:45:18.352Z,98663.25
2023-05-20T02:47:45.701Z,98663.78
2023-05-20T02:50:12.986Z,98662.81
2023-05-20T02:52:42.355Z,98666.56
2023-05-20T02:55:09.906Z,98674.56
2023-05-20T02:57:40.240Z,98669.88
2023-05-20T03:00:11.066Z,98669.88
2023-05-20T03:02:38.228Z,98670.13
2023-05-20T03:05:05.688Z,98661.16
2023-05-20T03:07:36.400Z,98659.16
2023-05-20T03:10:04.907Z,98651.94
2023-05-20T03:12:32.073Z,98651.44
2023-05-20T03:15:00.682Z,98639.72
2023-05-20T03:17:27.882Z,98645.94
2023-05-20T03:19:55.038Z,98632.47
2023-05-20T03:22:22.163Z,98642.72
2023-05-20T03:24:49.369Z,98639.28
2023-05-20T03:27:16.530Z,98649.00
2023-05-20T03:29:44.136Z,98643.72
2023-05-20T03:32:11.280Z,98649.50
2023-05-20T03:34:38.518Z,98646.53
2023-05-20T03:37:05.858Z,98658.69
2023-05-20T03:39:32.947Z,98659.44
2023-05-20T03:42:00.709Z,98656.91
2023-05-20T03:44:27.990Z,98659.66
2023-05-20T03:46:55.212Z,98669.66
2023-05-20T03:49:22.361Z,98664.88
2023-05-20T03:51:49.479Z,98667.31
2023-05-20T03:54:17.337Z,98671.03
2023-05-20T03:56:46.914Z,98674.00
2023-05-20T03:59:14.071Z,98681.19
2023-05-20T04:01:41.273Z,98678.19
2023-05-20T04:04:08.418Z,98682.63
2023-05-20T04:06:36.010Z,98679.88
2023-05-20T04:09:03.721Z,98676.84
2023-05-20T04:11:30.862Z,98673.44
2023-05-20T04:14:00.344Z,98667.69
2023-05-20T04:16:29.490Z,98670.00
2023-05-20T04:18:59.139Z,98673.53
2023-05-20T04:21:26.303Z,98689.56
2023-05-20T04:23:53.395Z,98679.09
2023-05-20T04:26:20.774Z,98676.06
2023-05-20T04:28:51.794Z,98685.84
2023-05-20T04:31:19.165Z,98682.63
2023-05-20T04:33:46.623Z,98697.31
2023-05-20T04:36:16.209Z,98683.38
2023-05-20T04:38:44.651Z,98685.06
2023-05-20T04:41:11.896Z,98680.34
2023-05-20T04:43:40.196Z,98686.59
2023-05-20T04:46:07.886Z,98677.09
2023-05-20T04:48:35.105Z,98669.09
2023-05-20T04:51:02.522Z,98669.31
2023-05-20T04:53:30.666Z,98669.53
2023-05-20T04:55:57.788Z,98671.03
2023-05-20T04:58:25.100Z,98670.31
2023-05-20T05:00:52.972Z,98667.03
2023-05-20T05:03:20.079Z,98669.69
2023-05-20T05:05:47.267Z,98674.44
2023-05-20T05:08:14.568Z,98680.84
2023-05-20T05:10:41.669Z,98678.78
2023-05-20T05:13:08.822Z,98682.66
2023-05-20T05:15:36.310Z,98673.94
2023-05-20T05:18:03.616Z,98675.41
2023-05-20T05:20:31.393Z,98658.63
2023-05-20T05:22:58.484Z,98666.06
2023-05-20T05:25:25.754Z,98666.75
2023-05-20T05:27:53.140Z,98666.28
2023-05-20T05:30:22.016Z,98668.75
2023-05-20T05:32:49.174Z,98665.75
2023-05-20T05:35:16.645Z,98660.69
2023-05-20T05:37:43.723Z,98670.84
2023-05-20T05:40:11.105Z,98665.06
2023-05-20T05:42:38.369Z,98666.25
2023-05-20T05:45:06.118Z,98657.94
2023-05-20T05:47:33.359Z,98652.47
2023-05-20T05:50:00.894Z,98663.13
2023-05-20T05:52:28.065Z,98658.09
2023-05-20T05:54:55.596Z,98656.16
2023-05-20T05:57:22.849Z,98655.84
2023-05-20T05:59:50.692Z,98654.50
2023-05-20T06:02:17.884Z,98662.22
2023-05-20T06:04:45.089Z,98655.72
2023-05-20T06:07:12.180Z,98661.94
2023-05-20T06:09:39.738Z,98667.44
2023-05-20T06:12:07.947Z,98648.00
2023-05-20T06:14:35.078Z,98643.09
2023-05-20T06:17:03.942Z,98646.00
2023-05-20T06:19:31.169Z,98643.88
2023-05-20T06:21:58.828Z,98645.66
2023-05-20T06:24:25.980Z,98653.31
2023-05-20T06:26:53.127Z,98651.53
2023-05-20T06:29:20.278Z,98657.31
2023-05-20T06:31:47.368Z,98656.06
2023-05-20T06:34:14.479Z,98655.00
2023-05-20T06:36:41.615Z,98649.13
2023-05-20T06:39:12.697Z,98654.00
2023-05-20T06:41:40.081Z,98655.47
2023-05-20T06:44:07.635Z,98650.22
2023-05-20T06:46:35.054Z,98645.88
2023-05-20T06:49:02.218Z,98638.50
2023-05-20T06:51:29.301Z,98641.38
2023-05-20T06:53:56.396Z,98640.56
2023-05-20T06:56:23.532Z,98648.72
2023-05-20T06:58:50.652Z,98634.56
2023-05-20T07:01:18.450Z,98637.63
2023-05-20T07:03:45.797Z,98635.66
2023-05-20T07:06:12.947Z,98630.59
2023-05-20T07:08:40.192Z,98628.78
2023-05-20T07:11:07.268Z,98631.50
2023-05-20T07:13:34.427Z,98628.59
2023-05-20T07:16:01.603Z,98628.16
2023-05-20T07:18:28.727Z,98624.53
2023-05-20T07:20:57.048Z,98619.53
2023-05-20T07:23:24.779Z,98618.25
2023-05-20T07:25:53.579Z,98617.75
2023-05-20T07:28:21.069Z,98618.41
2023-05-20T07:30:50.068Z,98617.56
2023-05-20T07:33:17.752Z,98609.47
2023-05-20T07:35:45.722Z,98605.03
2023-05-20T07:38:12.915Z,98604.50
2023-05-20T07:40:42.010Z,98597.66
2023-05-20T07:43:09.173Z,98595.81
2023-05-20T07:45:37.386Z,98587.25
2023-05-20T07:48:05.345Z,98600.03
2023-05-20T07:50:33.469Z,98594.72
2023-05-20T07:53:00.898Z,98590.69
2023-05-20T07:55:28.042Z,98592.50
2023-05-20T07:57:55.334Z,98583.06
2023-05-20T08:00:22.638Z,98582.09
2023-05-20T08:02:49.963Z,98575.81
2023-05-20T08:05:17.121Z,98572.50
2023-05-20T08:07:44.978Z,98578.75
2023-05-20T08:10:12.085Z,98570.63
2023-05-20T08:12:39.317Z,98579.81
2023-05-20T08:15:07.092Z,98579.38
2023-05-20T08:17:35.106Z,98563.38
2023-05-20T08:20:02.258Z,98575.44
2023-05-20T08:22:29.396Z,98562.53
2023-05-20T08:24:56.550Z,98562.00
2023-05-20T08:27:23.657Z,98551.13
2023-05-20T08:29:50.810Z,98549.66
2023-05-20T08:32:18.235Z,98554.09
2023-05-20T08:34:45.344Z,98553.44
2023-05-20T08:37:13.029Z,98545.34
2023-05-20T08:39:40.108Z,98539.41
2023-05-20T08:42:08.137Z,98540.13
2023-05-20T08:44:36.133Z,98546.63
2023-05-20T08:47:03.936Z,98542.78
2023-05-20T08:49:32.175Z,98540.31
2023-05-20T08:52:00.935Z,98540.47
2023-05-20T08:54:46.557Z,98543.22
2023-05-20T08:57:14.082Z,98539.88
2023-05-20T08:59:45.606Z,98538.28
2023-05-20T09:02:13.434Z,98535.66
2023-05-20T09:04:40.622Z,98544.66
2023-05-20T09:07:07.986Z,98542.41
2023-05-20T09:09:36.104Z,98539.66
2023-05-20T09:12:03.567Z,98526.66
2023-05-20T09:14:31.335Z,98533.16
2023-05-20T09:16:58.546Z,98530.34
2023-05-20T09:19:26.407Z,98525.72
2023-05-20T09:21:54.973Z,98522.19
2023-05-20T09:24:25.696Z,98514.84
2023-05-20T09:26:53.205Z,98519.03
2023-05-20T09:29:23.148Z,98510.94
2023-05-20T09:31:50.736Z,98518.34
2023-05-20T09:34:17.929Z,98499.66
2023-05-20T09:36:45.493Z,98500.84
2023-05-20T09:39:16.778Z,98503.81
2023-05-20T09:41:52.458Z,98501.16
2023-05-20T09:44:19.762Z,98496.63
2023-05-20T09:46:47.962Z,98491.06
2023-05-20T09:49:15.185Z,98477.84
2023-05-20T09:51:43.966Z,98483.56
2023-05-20T09:54:12.824Z,98480.03
2023-05-20T09:56:41.923Z,98474.25
2023-05-20T09:59:09.212Z,98473.06
2023-05-20T10:01:36.505Z,98468.69
2023-05-20T10:04:06.816Z,98469.13
2023-05-20T10:06:41.653Z,98456.53
2023-05-20T10:09:37.952Z,98458.56
2023-05-20T10:12:27.434Z,98458.28
2023-05-20T10:15:24.964Z,98456.66
2023-05-20T10:18:29.428Z,98449.31
2023-05-20T10:20:56.769Z,98442.56
2023-05-20T10:23:25.057Z,98442.75
2023-05-20T10:25:53.547Z,98443.00
2023-05-20T10:28:36.045Z,98440.22
2023-05-20T10:31:14.423Z,98434.03
2023-05-20T10:33:46.618Z,98430.84
2023-05-20T10:36:26.928Z,98438.47
2023-05-20T10:38:55.872Z,98438.91
2023-05-20T10:41:27.764Z,98427.50
2023-05-20T10:44:04.910Z,98429.72
2023-05-20T10:46:48.633Z,98426.66
2023-05-20T10:49:22.392Z,98422.97
2023-05-20T10:51:58.283Z,98417.72
2023-05-20T10:54:25.593Z,98421.97
2023-05-20T10:56:53.757Z,98420.34
2023-05-20T10:59:24.386Z,98421.97
2023-05-20T11:01:51.902Z,98414.19
2023-05-20T11:04:19.706Z,98411.41
2023-05-20T11:06:57.383Z,98412.13
2023-05-20T11:09:24.822Z,98411.84
2023-05-20T11:11:53.181Z,98398.94
2023-05-20T11:14:21.785Z,98399.66
2023-05-20T11:16:53.379Z,98397.03
2023-05-20T11:19:20.783Z,98390.81
2023-05-20T11:21:48.830Z,98391.25
2023-05-20T11:24:26.882Z,98387.75
2023-05-20T11:26:57.558Z,98398.16
2023-05-20T11:29:26.561Z,98387.16
2023-05-20T11:31:53.767Z,98386.41
2023-05-20T11:34:24.122Z,98389.84
2023-05-20T11:36:59.922Z,98383.97
2023-05-20T11:39:30.262Z,98372.81
2023-05-20T11:41:58.214Z,98369.28
2023-05-20T11:44:25.960Z,98374.97
2023-05-20T11:47:00.063Z,98360.50
2023-05-20T11:49:27.535Z,98358.28
2023-05-20T11:51:54.626Z,98369.41
2023-05-20T11:54:23.371Z,98374.53
2023-05-20T11:56:50.741Z,98380.84
2023-05-20T11:59:17.842Z,98368.53
2023-05-20T12:01:45.739Z,98367.53
2023-05-20T12:04:17.495Z,98373.53
2023-05-20T12:06:44.777Z,98371.53
2023-05-20T12:09:11.910Z,98378.13
2023-05-20T12:11:59.402Z,98356.75
2023-05-20T12:14:26.618Z,98357.94
2023-05-20T12:16:53.785Z,98352.50
2023-05-20T12:19:20.976Z,98359.56
2023-05-20T12:21:48.102Z,98351.47
2023-05-20T12:24:15.469Z,98356.00
2023-05-20T12:26:42.582Z,98345.75
2023-05-20T12:29:10.269Z,98342.06
2023-05-20T12:31:37.410Z,98332.34
2023-05-20T12:34:04.512Z,98333.22
2023-05-20T12:36:31.693Z,98332.47
2023-05-20T12:38:58.788Z,98335.09
2023-05-20T12:41:25.992Z,98332.47
2023-05-20T12:43:54.245Z,98320.03
2023-05-20T12:46:21.528Z,98328.56
2023-05-20T12:48:48.877Z,98333.00
2023-05-20T12:51:16.096Z,98335.06
2023-05-20T12:53:43.227Z,98333.34
2023-05-20T12:56:10.718Z,98333.16
2023-05-20T12:58:39.621Z,98333.03
2023-05-20T13:01:06.740Z,98322.19
2023-05-20T13:03:34.051Z,98319.09
2023-05-20T13:06:01.333Z,98315.44
2023-05-20T13:08:28.947Z,98317.63
2023-05-20T13:10:56.289Z,98310.34
2023-05-20T13:13:24.271Z,98313.97
2023-05-20T13:15:54.372Z,98318.38
2023-05-20T13:18:21.546Z,98313.09
2023-05-20T13:20:49.806Z,98312.75
2023-05-20T13:23:17.400Z,98309.63
2023-05-20T13:25:45.066Z,98301.66
2023-05-20T13:28:16.690Z,98310.09
2023-05-20T13:30:44.344Z,98306.53
2023-05-20T13:33:11.595Z,98298.47
2023-05-20T13:35:38.771Z,98293.28
2023-05-20T13:38:05.912Z,98284.78
2023-05-20T13:40:33.292Z,98281.75
2023-05-20T13:43:00.700Z,98296.44
2023-05-20T13:45:29.532Z,98284.31
2023-05-20T13:47:56.696Z,98286.34
2023-05-20T13:50:24.038Z,98279.88
2023-05-20T13:52:51.134Z,98282.00
2023-05-20T13:55:18.262Z,98276.75
2023-05-20T13:57:45.572Z,98287.59
2023-05-20T14:00:13.514Z,98284.81
2023-05-20T14:02:41.460Z,98273.66
2023-05-20T14:05:08.760Z,98270.97
2023-05-20T14:07:36.021Z,98266.41
2023-05-20T14:10:03.387Z,98272.97
2023-05-20T14:12:30.566Z,98268.41
2023-05-20T14:14:58.069Z,98267.38
2023-05-20T14:17:25.921Z,98264.94
2023-05-20T14:19:53.069Z,98260.09
2023-05-20T14:22:20.530Z,98268.91
2023-05-20T14:24:47.655Z,98255.31
2023-05-20T14:27:15.143Z,98258.25
2023-05-20T14:29:42.263Z,98255.47
2023-05-20T14:32:11.449Z,98250.94
2023-05-20T14:34:38.555Z,98253.72
2023-05-20T14:37:09.830Z,98252.16
2023-05-20T14:39:36.955Z,98241.00
2023-05-20T14:42:04.375Z,98240.28
2023-05-20T14:44:31.528Z,98245.69
2023-05-20T14:46:58.853Z,98238.06
2023-05-20T14:49:26.237Z,98241.31
2023-05-20T14:51:53.401Z,98250.13
2023-05-20T14:54:24.860Z,98249.59
2023-05-20T14:56:52.138Z,98255.66
2023-05-20T14:59:19.313Z,98252.19
2023-05-20T15:01:46.536Z,98262.19
2023-05-20T15:04:13.763Z,98259.88
2023-05-20T15:06:41.620Z,98257.25
2023-05-20T15:09:08.724Z,98245.97
2023-05-20T15:11:36.038Z,98249.78
2023-05-20T15:14:03.388Z,98240.03
2023-05-20T15:16:30.853Z,98235.59
2023-05-20T15:18:58.027Z,98235.00
2023-05-20T15:21:25.982Z,98239.72
2023-05-20T15:23:53.196Z,98229.41
2023-05-20T15:26:20.349Z,98246.88
2023-05-20T15:28:47.479Z,98235.78
2023-05-20T15:31:14.706Z,98229.66
2023-05-20T15:33:41.874Z,98231.28
2023-05-20T15:36:09.188Z,98231.91
2023-05-20T15:38:36.558Z,98221.34
2023-05-20T15:41:03.699Z,98220.94
2023-05-20T15:43:30.822Z,98231.94
2023-05-20T15:45:58.355Z,98222.13
2023-05-20T15:48:26.136Z,98215.25
2023-05-20T15:50:54.043Z,98214.03
2023-05-20T15:53:21.254Z,98216.69
2023-05-20T15:55:48.376Z,98220.53
2023-05-20T15:58:15.501Z,98226.41
2023-05-20T16:00:42.939Z,98222.59
2023-05-20T16:03:11.276Z,98216.31
2023-05-20T16:05:38.958Z,98224.06
2023-05-20T16:08:06.181Z,98223.34
2023-05-20T16:10:34.518Z,98205.03
2023-05-20T16:13:02.250Z,98211.22
2023-05-20T16:15:49.422Z,98209.16
2023-05-20T16:18:16.950Z,98204.63
2023-05-20T16:20:44.032Z,98201.44
2023-05-20T16:23:11.904Z,98202.75
2023-05-20T16:25:39.326Z,98200.56
2023-05-20T16:28:06.678Z,98202.47
2023-05-20T16:30:35.288Z,98203.78
2023-05-20T16:33:02.677Z,98204.94
2023-05-20T16:35:30.007Z,98200.72
2023-05-20T16:37:57.145Z,98196.34
2023-05-20T16:40:24.319Z,98183.75
2023-05-20T16:42:51.925Z,98190.63
2023-05-20T16:45:19.059Z,98194.00
2023-05-20T16:47:46.647Z,98187.56
2023-05-20T16:50:13.832Z,98191.38
2023-05-20T16:52:41.754Z,98188.00
2023-05-20T16:55:09.503Z,98190.31
2023-05-20T16:57:36.727Z,98198.06
2023-05-20T17:00:11.610Z,98202.75
2023-05-20T17:02:38.841Z,98205.28
2023-05-20T17:05:06.850Z,98200.00
2023-05-20T17:07:34.964Z,98204.09
2023-05-20T17:10:02.137Z,98209.22
2023-05-20T17:12:29.437Z,98210.97
2023-05-20T17:14:56.553Z,98204.69
2023-05-20T17:17:24.153Z,98205.59
2023-05-20T17:19:51.466Z,98209.81
2023-05-20T17:22:18.609Z,98208.06
2023-05-20T17:24:46.180Z,98210.69
2023-05-20T17:27:13.388Z,98211.88
2023-05-20T17:29:40.582Z,98206.91
2023-05-20T17:32:07.780Z,98208.66
2023-05-20T17:34:34.915Z,98221.69
2023-05-20T17:37:02.441Z,98219.47
2023-05-20T17:39:29.580Z,98216.69
2023-05-20T17:41:56.746Z,98223.31
2023-05-20T17:44:23.835Z,98213.50
2023-05-20T17:46:51.197Z,98222.56
2023-05-20T17:49:18.375Z,98216.72
2023-05-20T17:51:46.141Z,98224.19
2023-05-20T17:54:13.669Z,98216.44
2023-05-20T17:56:42.035Z,98227.25
2023-05-20T17:59:09.135Z,98232.66
2023-05-20T18:01:37.435Z,98229.59
2023-05-20T18:04:05.872Z,98231.06
2023-05-20T18:06:34.720Z,98234.41
2023-05-20T18:09:02.109Z,98234.41
2023-05-20T18:11:31.865Z,98230.03
2023-05-20T18:13:59.756Z,98241.59
2023-05-20T18:16:27.578Z,98241.59
2023-05-20T18:18:55.867Z,98239.22
2023-05-20T18:21:24.028Z,98250.19
2023-05-20T18:23:51.431Z,98245.81
2023-05-20T18:26:19.521Z,98239.94
2023-05-20T18:28:46.663Z,98247.50
2023-05-20T18:31:13.910Z,98250.56
2023-05-20T18:33:41.211Z,98254.50
2023-05-20T18:36:08.392Z,98258.44
2023-05-20T18:38:35.573Z,98260.19
2023-05-20T18:41:02.756Z,98259.72
2023-05-20T18:43:29.979Z,98250.53
2023-05-20T18:45:57.147Z,98250.94
2023-05-20T18:48:27.153Z,98258.38
2023-05-20T18:50:55.651Z,98260.88
2023-05-20T18:53:22.886Z,98259.69
2023-05-20T18:55:50.134Z,98261.66
2023-05-20T18:58:17.312Z,98262.69
2023-05-20T19:00:44.520Z,98264.69
2023-05-20T19:03:11.868Z,98272.38
2023-05-20T19:05:39.328Z,98274.31
2023-05-20T19:08:06.802Z,98289.78
2023-05-20T19:10:34.104Z,98285.94
2023-05-20T19:13:01.256Z,98282.53
2023-05-20T19:15:30.135Z,98283.94
2023-05-20T19:17:57.335Z,98285.09
2023-05-20T19:20:24.576Z,98285.47
2023-05-20T19:22:52.417Z,98279.44
2023-05-20T19:25:19.869Z,98283.03
2023-05-20T19:27:47.175Z,98286.66
2023-05-20T19:30:14.327Z,98279.88
2023-05-20T19:32:42.646Z,98291.94
2023-05-20T19:35:09.960Z,98279.63
2023-05-20T19:37:37.082Z,98291.84
2023-05-20T19:40:04.505Z,98287.47
2023-05-20T19:42:33.388Z,98289.31
2023-05-20T19:45:00.849Z,98290.84
2023-05-20T19:47:27.977Z,98294.63
2023-05-20T19:49:55.166Z,98300.50
2023-05-20T19:52:22.438Z,98304.66
2023-05-20T19:54:49.570Z,98294.31
2023-05-20T19:57:16.936Z,98304.91
2023-05-20T19:59:44.043Z,98292.59
2023-05-20T20:02:11.136Z,98292.59
2023-05-20T20:04:38.501Z,98292.59
2023-05-20T20:07:07.547Z,98291.13
2023-05-20T20:09:35.560Z,98294.47
2023-05-20T20:12:02.812Z,98293.22
2023-05-20T20:14:30.593Z,98294.16
2023-05-20T20:16:59.677Z,98296.81
2023-05-20T20:19:28.514Z,98287.06
2023-05-20T20:21:56.695Z,98285.25
2023-05-20T20:24:24.290Z,98291.75
2023-05-20T20:26:55.243Z,98285.13
2023-05-20T20:29:22.591Z,98282.94
2023-05-20T20:31:51.024Z,98277.44
2023-05-20T20:34:18.212Z,98285.59
2023-05-20T20:36:47.175Z,98275.78
2023-05-20T20:39:20.384Z,98289.09
2023-05-20T20:41:51.363Z,98282.63
2023-05-20T20:44:22.773Z,98275.06
2023-05-20T20:46:54.752Z,98277.09
2023-05-20T20:49:22.757Z,98271.97
2023-05-20T20:51:50.315Z,98272.13
2023-05-20T20:54:17.477Z,98280.44
2023-05-20T20:56:47.135Z,98285.38
2023-05-20T20:59:15.999Z,98287.81
2023-05-20T21:01:44.660Z,98286.00
2023-05-20T21:04:13.817Z,98286.44
2023-05-20T21:06:42.229Z,98283.50
2023-05-20T21:09:09.559Z,98287.75
2023-05-20T21:11:38.324Z,98280.19
2023-05-20T21:14:05.599Z,98287.97
2023-05-20T21:16:32.752Z,98282.09
2023-05-20T21:18:59.966Z,98282.13
2023-05-20T21:21:27.082Z,98281.59
2023-05-20T21:23:56.468Z,98281.63
2023-05-20T21:26:24.985Z,98285.69
2023-05-20T21:28:52.305Z,98287.56
2023-05-20T21:31:19.609Z,98276.34
2023-05-20T21:33:46.844Z,98275.28
2023-05-20T21:36:14.022Z,98270.84
2023-05-20T21:38:41.238Z,98277.66
2023-05-20T21:41:08.689Z,98271.97
2023-05-20T21:43:37.037Z,98271.81
2023-05-20T21:46:04.195Z,98268.88
2023-05-20T21:48:31.369Z,98265.75
2023-05-20T21:50:58.482Z,98262.63
2023-05-20T21:53:25.585Z,98269.44
2023-05-20T21:55:52.784Z,98263.72
2023-05-20T21:58:19.898Z,98272.41
2023-05-20T22:00:46.980Z,98273.88
2023-05-20T22:03:14.693Z,98275.00
2023-05-20T22:05:45.871Z,98269.81
2023-05-20T22:08:13.106Z,98268.19
2023-05-20T22:10:40.278Z,98262.81
2023-05-20T22:13:07.392Z,98261.34
2023-05-20T22:15:34.737Z,98268.53
2023-05-20T22:18:04.178Z,98263.22
2023-05-20T22:20:33.820Z,98252.91
2023-05-20T22:23:01.348Z,98264.31
2023-05-20T22:25:28.759Z,98261.00
2023-05-20T22:27:55.931Z,98259.53
2023-05-20T22:30:23.078Z,98259.16
2023-05-20T22:32:50.414Z,98259.88
2023-05-20T22:35:17.550Z,98252.53
2023-05-20T22:37:44.713Z,98245.91
2023-05-20T22:40:12.094Z,98250.69
2023-05-20T22:42:39.221Z,98248.50
2023-05-20T22:45:07.044Z,98233.59
2023-05-20T22:47:34.189Z,98234.50
2023-05-20T22:50:02.648Z,98232.84
2023-05-20T22:52:30.008Z,98236.16
2023-05-20T22:54:58.454Z,98231.19
2023-05-20T22:57:25.875Z,98233.19
2023-05-20T22:59:53.982Z,98225.84
2023-05-20T23:02:23.160Z,98229.53
2023-05-20T23:04:50.648Z,98224.91
2023-05-20T23:07:19.420Z,98225.81
2023-05-20T23:09:48.437Z,98219.00
2023-05-20T23:12:15.738Z,98224.91
2023-05-20T23:14:42.979Z,98227.47
2023-05-20T23:17:10.134Z,98217.53
2023-05-20T23:19:37.262Z,98217.91
2023-05-20T23:22:04.538Z,98212.03
2023-05-20T23:24:31.674Z,98212.03
2023-05-20T23:26:59.363Z,98215.88
2023-05-20T23:29:26.936Z,98221.41
2023-05-20T23:31:54.081Z,98214.97
2023-05-20T23:34:21.954Z,98228.56
2023-05-20T23:36:49.871Z,98220.84
2023-05-20T23:39:18.343Z,98223.78
2023-05-20T23:41:45.748Z,98226.03
2023-05-20T23:44:13.034Z,98226.78
2023-05-20T23:46:40.176Z,98215.75
2023-05-20T23:49:07.392Z,98228.25
2023-05-20T23:51:35.555Z,98224.56
2023-05-20T23:54:02.754Z,98224.00
2023-05-20T23:56:29.834Z,98222.34
2023-05-20T23:58:57.816Z,98225.81
